Time;durP1;ratioP1;P1;durP2;ratioP2;P2;SDS_P1;SDS_P2;PMS_P1;PMS_P2;Temp;Humidity;BMP_temperature;BMP_pressure;BME280_temperature;BME280_humidity;BME280_pressure;Samples;Min_cycle;Max_cycle;Signal;HPM_P1;HPM_P2
2023/01/10 00:02:05;;;;;;;;;;;18.10;66.40;;;;;;4970349;28;1652;-69
2023/01/10 00:04:30;;;;;;;;;;;18.10;66.40;;;;;;4965621;28;1320;-70
2023/01/10 00:06:56;;;;;;;;;;;18.10;66.40;;;;;;4982043;28;1379;-70
2023/01/10 00:09:21;;;;;;;;;;;18.10;66.40;;;;;;4969022;28;1722;-71
2023/01/10 00:14:33;;;;;;;;;;;18.10;66.50;;;;;;4964372;28;1417;-73
2023/01/10 00:17:02;;;;;;;;;;;18.10;66.50;;;;;;4966943;28;1401;-71
2023/01/10 00:19:27;;;;;;;;;;;18.10;66.50;;;;;;4972843;28;1735;-71
2023/01/10 00:21:54;;;;;;;;;;;18.00;66.40;;;;;;4967629;28;1428;-72
2023/01/10 00:24:20;;;;;;;;;;;18.10;66.50;;;;;;4966903;28;1423;-72
2023/01/10 00:26:49;;;;;;;;;;;18.00;66.50;;;;;;4965923;28;1437;-71
2023/01/10 00:29:18;;;;;;;;;;;18.00;66.50;;;;;;4966631;28;1436;-71
2023/01/10 00:31:44;;;;;;;;;;;18.00;66.50;;;;;;4966581;28;1906;-71
2023/01/10 00:34:09;;;;;;;;;;;18.00;66.50;;;;;;4968106;28;1350;-70
2023/01/10 00:36:35;;;;;;;;;;;18.00;66.50;;;;;;4964729;28;1451;-71
2023/01/10 00:39:01;;;;;;;;;;;18.00;66.60;;;;;;4966502;28;834;-70
2023/01/10 00:44:10;;;;;;;;;;;18.00;66.60;;;;;;4967128;28;784;-70
2023/01/10 00:46:36;;;;;;;;;;;18.00;66.60;;;;;;4969101;28;1327;-69
2023/01/10 00:49:04;;;;;;;;;;;18.00;66.60;;;;;;4966814;28;852;-70
2023/01/10 00:51:29;;;;;;;;;;;18.00;66.70;;;;;;4966700;28;1906;-70
2023/01/10 00:53:55;;;;;;;;;;;18.00;66.70;;;;;;4968647;28;1261;-70
2023/01/10 00:56:20;;;;;;;;;;;18.00;66.70;;;;;;4969862;28;1382;-69
2023/01/10 00:58:46;;;;;;;;;;;18.00;66.70;;;;;;4970437;28;1452;-70
2023/01/10 01:01:11;;;;;;;;;;;18.00;66.70;;;;;;4969624;28;1399;-70
2023/01/10 01:03:37;;;;;;;;;;;18.00;66.70;;;;;;4970314;28;1416;-70
2023/01/10 01:06:03;;;;;;;;;;;18.00;66.80;;;;;;4967389;28;1320;-69
2023/01/10 01:08:28;;;;;;;;;;;18.00;66.80;;;;;;4980481;28;1347;-69
2023/01/10 01:10:54;;;;;;;;;;;18.00;66.70;;;;;;4963313;28;1907;-71
2023/01/10 01:13:19;;;;;;;;;;;18.00;66.80;;;;;;4966436;28;891;-70
2023/01/10 01:15:45;;;;;;;;;;;18.00;66.80;;;;;;4968927;28;1339;-70
2023/01/10 01:18:11;;;;;;;;;;;18.00;66.80;;;;;;4969795;28;860;-71
2023/01/10 01:20:37;;;;;;;;;;;17.90;66.70;;;;;;4967869;28;798;-70
2023/01/10 01:23:03;;;;;;;;;;;18.00;66.80;;;;;;4958760;28;963;-70
2023/01/10 01:25:28;;;;;;;;;;;18.00;66.80;;;;;;4964989;28;1354;-70
2023/01/10 01:27:54;;;;;;;;;;;18.00;66.80;;;;;;4966333;28;813;-70
2023/01/10 01:30:19;;;;;;;;;;;18.00;66.90;;;;;;4965019;28;1910;-70
2023/01/10 01:32:45;;;;;;;;;;;17.90;66.80;;;;;;4968135;28;1378;-70
2023/01/10 01:35:11;;;;;;;;;;;18.00;66.90;;;;;;4967229;28;1360;-70
2023/01/10 01:37:36;;;;;;;;;;;17.90;66.80;;;;;;4967163;28;1218;-70
2023/01/10 01:40:02;;;;;;;;;;;17.90;66.80;;;;;;4965167;28;867;-70
2023/01/10 01:42:28;;;;;;;;;;;18.00;66.90;;;;;;4968289;28;826;-70
2023/01/10 01:45:07;;;;;;;;;;;17.90;66.90;;;;;;4963759;28;1346;-70
2023/01/10 01:47:32;;;;;;;;;;;17.90;66.90;;;;;;4967372;28;832;-70
2023/01/10 01:49:58;;;;;;;;;;;18.00;66.90;;;;;;4953811;28;1902;-70
2023/01/10 01:52:25;;;;;;;;;;;17.90;66.90;;;;;;4967958;28;896;-69
2023/01/10 01:54:51;;;;;;;;;;;18.00;67.00;;;;;;4961138;28;1266;-70
2023/01/10 01:57:17;;;;;;;;;;;18.00;67.00;;;;;;4963594;28;912;-70
2023/01/10 01:59:43;;;;;;;;;;;17.90;66.90;;;;;;4965046;28;967;-71
2023/01/10 02:02:17;;;;;;;;;;;17.90;66.90;;;;;;4966308;28;900;-70
2023/01/10 02:05:02;;;;;;;;;;;17.90;66.90;;;;;;4964559;28;1408;-70
2023/01/10 02:07:28;;;;;;;;;;;17.90;66.90;;;;;;4964722;28;879;-70
2023/01/10 02:09:55;;;;;;;;;;;17.90;66.90;;;;;;4957277;28;1899;-70
2023/01/10 02:12:20;;;;;;;;;;;17.90;67.70;;;;;;4961989;28;1071;-68
2023/01/10 02:14:46;;;;;;;;;;;17.90;67.00;;;;;;4964307;28;1366;-69
2023/01/10 02:17:11;;;;;;;;;;;17.90;67.00;;;;;;4965844;28;1063;-69
2023/01/10 02:19:37;;;;;;;;;;;17.90;67.00;;;;;;4965352;28;935;-69
2023/01/10 02:22:05;;;;;;;;;;;17.90;67.00;;;;;;4965828;28;801;-68
2023/01/10 02:24:38;;;;;;;;;;;17.90;67.00;;;;;;4967500;28;1335;-69
2023/01/10 02:27:36;;;;;;;;;;;17.90;67.00;;;;;;4963686;28;1364;-69
2023/01/10 02:30:09;;;;;;;;;;;17.90;67.00;;;;;;4968130;28;1903;-69
2023/01/10 02:32:36;;;;;;;;;;;17.90;67.00;;;;;;4964496;28;839;-70
2023/01/10 02:35:10;;;;;;;;;;;17.90;67.10;;;;;;4963813;28;1344;-69
2023/01/10 02:37:45;;;;;;;;;;;17.90;67.10;;;;;;4965593;28;1022;-70
2023/01/10 02:40:25;;;;;;;;;;;17.90;67.10;;;;;;4965537;28;815;-69
2023/01/10 02:43:06;;;;;;;;;;;17.90;67.10;;;;;;4965074;28;1160;-69
2023/01/10 02:45:37;;;;;;;;;;;17.90;67.10;;;;;;4966633;28;1233;-69
2023/01/10 02:48:03;;;;;;;;;;;17.90;67.10;;;;;;4967513;28;888;-69
2023/01/10 02:50:30;;;;;;;;;;;17.90;67.10;;;;;;4965520;28;1975;-69
2023/01/10 02:52:59;;;;;;;;;;;17.90;67.10;;;;;;4960179;28;1286;-69
2023/01/10 02:55:27;;;;;;;;;;;17.90;67.20;;;;;;4964937;28;1348;-69
2023/01/10 02:57:55;;;;;;;;;;;17.90;67.20;;;;;;4948772;28;822;-70
2023/01/10 03:00:24;;;;;;;;;;;17.90;67.20;;;;;;4966711;28;1304;-72
2023/01/10 03:02:53;;;;;;;;;;;17.90;67.20;;;;;;4966222;28;903;-70
2023/01/10 03:05:18;;;;;;;;;;;17.90;67.20;;;;;;4965230;28;1299;-70
2023/01/10 03:07:50;;;;;;;;;;;17.90;67.20;;;;;;4962702;28;922;-70
2023/01/10 03:10:18;;;;;;;;;;;17.80;67.10;;;;;;4963041;28;1966;-70
2023/01/10 03:12:57;;;;;;;;;;;17.90;67.20;;;;;;4967452;28;896;-70
2023/01/10 03:15:23;;;;;;;;;;;17.90;67.20;;;;;;4967488;28;1385;-70
2023/01/10 03:17:50;;;;;;;;;;;17.90;67.20;;;;;;4967313;28;966;-70
2023/01/10 03:20:16;;;;;;;;;;;17.90;67.20;;;;;;4970430;28;840;-70
2023/01/10 03:22:42;;;;;;;;;;;17.90;67.20;;;;;;4968599;28;975;-71
2023/01/10 03:25:08;;;;;;;;;;;17.90;67.20;;;;;;4970609;28;1403;-72
2023/01/10 03:27:52;;;;;;;;;;;17.80;67.20;;;;;;4971698;28;1325;-71
2023/01/10 03:30:27;;;;;;;;;;;17.90;67.20;;;;;;4967443;28;2017;-70
2023/01/10 03:32:53;;;;;;;;;;;17.90;67.20;;;;;;4982402;28;1425;-70
2023/01/10 03:35:19;;;;;;;;;;;17.90;67.30;;;;;;4967810;28;1428;-70
2023/01/10 03:37:46;;;;;;;;;;;17.90;67.30;;;;;;4981114;28;1448;-70
2023/01/10 03:40:30;;;;;;;;;;;17.80;67.20;;;;;;4982565;28;1303;-71
2023/01/10 03:45:46;;;;;;;;;;;17.80;67.20;;;;;;4969694;28;1315;-70
2023/01/10 03:48:11;;;;;;;;;;;17.80;67.20;;;;;;4968147;28;947;-70
2023/01/10 03:50:37;;;;;;;;;;;17.80;67.20;;;;;;4962683;28;1894;-70
2023/01/10 03:53:03;;;;;;;;;;;17.80;67.30;;;;;;4965247;28;846;-70
2023/01/10 03:55:28;;;;;;;;;;;17.80;67.20;;;;;;4965015;28;1382;-70
2023/01/10 03:57:54;;;;;;;;;;;17.80;67.30;;;;;;4968598;28;833;-70
2023/01/10 04:00:19;;;;;;;;;;;17.80;67.20;;;;;;4968630;28;1280;-70
2023/01/10 04:02:45;;;;;;;;;;;17.80;67.20;;;;;;4967816;28;872;-70
2023/01/10 04:05:11;;;;;;;;;;;17.80;67.20;;;;;;4969817;28;1299;-70
2023/01/10 04:07:36;;;;;;;;;;;17.80;67.20;;;;;;4966635;28;840;-70
2023/01/10 04:10:05;;;;;;;;;;;17.80;67.30;;;;;;4969473;28;1894;-71
2023/01/10 04:12:30;;;;;;;;;;;17.80;67.30;;;;;;4967766;28;857;-70
2023/01/10 04:14:56;;;;;;;;;;;17.80;67.20;;;;;;4952752;28;1274;-70
2023/01/10 04:17:21;;;;;;;;;;;17.80;67.20;;;;;;4968161;28;807;-71
2023/01/10 04:19:47;;;;;;;;;;;17.80;67.20;;;;;;4965147;28;891;-70
2023/01/10 04:22:12;;;;;;;;;;;17.80;67.20;;;;;;4966696;28;999;-70
2023/01/10 04:24:38;;;;;;;;;;;17.80;67.20;;;;;;4963543;28;1005;-71
2023/01/10 04:27:03;;;;;;;;;;;17.80;67.20;;;;;;4971338;28;1336;-70
2023/01/10 04:29:29;;;;;;;;;;;17.80;67.20;;;;;;4963221;28;895;-70
2023/01/10 04:31:54;;;;;;;;;;;17.80;67.20;;;;;;4968048;28;2001;-70
2023/01/10 04:34:20;;;;;;;;;;;17.80;67.20;;;;;;4969239;28;1283;-70
2023/01/10 04:36:46;;;;;;;;;;;17.80;67.30;;;;;;4966876;28;1351;-70
2023/01/10 04:39:11;;;;;;;;;;;17.80;67.30;;;;;;4969143;28;806;-70
2023/01/10 04:41:37;;;;;;;;;;;17.80;67.20;;;;;;4967199;28;872;-70
2023/01/10 04:44:02;;;;;;;;;;;17.80;67.30;;;;;;4967271;28;1285;-70
2023/01/10 04:46:28;;;;;;;;;;;17.80;67.30;;;;;;4965211;28;1299;-70
2023/01/10 04:48:54;;;;;;;;;;;17.80;67.30;;;;;;4966628;28;912;-70
2023/01/10 04:51:19;;;;;;;;;;;17.80;67.30;;;;;;4967741;28;1971;-71
2023/01/10 04:53:45;;;;;;;;;;;17.80;67.40;;;;;;4966468;28;895;-70
2023/01/10 04:56:14;;;;;;;;;;;17.80;67.40;;;;;;4964189;28;1380;-70
2023/01/10 04:58:39;;;;;;;;;;;17.80;67.30;;;;;;4962207;28;966;-71
2023/01/10 05:01:15;;;;;;;;;;;17.80;67.40;;;;;;4966980;28;1292;-71
2023/01/10 05:03:40;;;;;;;;;;;17.80;67.40;;;;;;4972381;28;1248;-71
2023/01/10 05:06:06;;;;;;;;;;;17.80;67.30;;;;;;4965504;28;1369;-71
2023/01/10 05:08:31;;;;;;;;;;;17.80;67.30;;;;;;4965931;28;870;-71
2023/01/10 05:10:57;;;;;;;;;;;17.80;67.30;;;;;;4961459;28;1898;-70
2023/01/10 05:13:23;;;;;;;;;;;17.80;67.30;;;;;;4964321;28;892;-70
2023/01/10 05:15:49;;;;;;;;;;;17.80;67.20;;;;;;4966798;28;1261;-69
2023/01/10 05:18:14;;;;;;;;;;;17.90;67.20;;;;;;4967472;28;1022;-69
2023/01/10 05:20:40;;;;;;;;;;;17.90;67.10;;;;;;4968407;28;1368;-70
2023/01/10 05:23:08;;;;;;;;;;;17.90;66.90;;;;;;4967782;28;830;-70
2023/01/10 05:25:34;;;;;;;;;;;18.00;66.80;;;;;;4963310;28;1237;-69
2023/01/10 05:27:59;;;;;;;;;;;18.00;66.70;;;;;;4966226;28;895;-69
2023/01/10 05:30:25;;;;;;;;;;;18.10;66.60;;;;;;4967223;28;1898;-69
2023/01/10 05:32:50;;;;;;;;;;;18.10;66.40;;;;;;4965504;28;904;-70
2023/01/10 05:35:16;;;;;;;;;;;18.10;66.30;;;;;;4965746;28;1390;-70
2023/01/10 05:37:41;;;;;;;;;;;18.20;66.20;;;;;;4966198;28;841;-70
2023/01/10 05:40:07;;;;;;;;;;;18.20;66.10;;;;;;4963805;28;1586;-72
2023/01/10 05:42:33;;;;;;;;;;;18.20;66.00;;;;;;4955383;28;3994;-72
2023/01/10 05:44:58;;;;;;;;;;;18.20;65.90;;;;;;4966327;28;1385;-70
2023/01/10 05:47:24;;;;;;;;;;;18.30;65.90;;;;;;4968732;28;904;-72
2023/01/10 05:49:49;;;;;;;;;;;18.30;65.70;;;;;;4963213;28;840;-71
2023/01/10 05:52:15;;;;;;;;;;;18.30;65.70;;;;;;4971524;28;1973;-73
2023/01/10 05:54:40;;;;;;;;;;;18.30;65.60;;;;;;4962912;28;876;-72
2023/01/10 05:57:06;;;;;;;;;;;18.30;65.60;;;;;;4965087;28;1644;-71
2023/01/10 05:59:31;;;;;;;;;;;18.30;65.50;;;;;;4968767;28;1264;-71
2023/01/10 06:01:56;;;;;;;;;;;18.30;65.40;;;;;;4965686;28;895;-70
2023/01/10 06:04:22;;;;;;;;;;;18.30;65.40;;;;;;4966766;28;1311;-73
2023/01/10 06:06:47;;;;;;;;;;;18.40;65.40;;;;;;4964618;28;1278;-69
2023/01/10 06:09:13;;;;;;;;;;;18.40;65.40;;;;;;4965314;28;939;-71
2023/01/10 06:11:38;;;;;;;;;;;18.40;65.40;;;;;;4965704;28;1953;-71
2023/01/10 06:14:04;;;;;;;;;;;18.40;65.30;;;;;;4967746;28;878;-71
2023/01/10 06:16:29;;;;;;;;;;;18.40;65.30;;;;;;4961378;28;1374;-71
2023/01/10 06:18:55;;;;;;;;;;;18.40;65.30;;;;;;4965027;28;854;-71
2023/01/10 06:21:20;;;;;;;;;;;18.40;65.20;;;;;;4960969;28;1528;-71
2023/01/10 06:23:46;;;;;;;;;;;18.40;65.20;;;;;;4967023;28;824;-71
2023/01/10 06:26:11;;;;;;;;;;;18.40;65.20;;;;;;4962611;28;1263;-71
2023/01/10 06:28:37;;;;;;;;;;;18.40;65.20;;;;;;4961438;28;880;-71
2023/01/10 06:31:02;;;;;;;;;;;18.40;65.10;;;;;;4966764;28;1964;-71
2023/01/10 06:33:28;;;;;;;;;;;18.50;65.20;;;;;;4965115;28;796;-71
2023/01/10 06:35:54;;;;;;;;;;;18.50;65.20;;;;;;4967555;28;1504;-71
2023/01/10 06:38:20;;;;;;;;;;;18.50;65.20;;;;;;4967813;28;1109;-71
2023/01/10 06:40:45;;;;;;;;;;;18.50;65.10;;;;;;4966457;28;905;-71
2023/01/10 06:43:11;;;;;;;;;;;18.50;65.10;;;;;;4963074;28;880;-71
2023/01/10 06:45:36;;;;;;;;;;;18.50;65.10;;;;;;4966887;28;1347;-71
2023/01/10 06:48:02;;;;;;;;;;;18.50;65.10;;;;;;4981489;28;1033;-71
2023/01/10 06:50:27;;;;;;;;;;;18.50;65.10;;;;;;4969395;28;2001;-71
2023/01/10 06:52:59;;;;;;;;;;;18.40;65.00;;;;;;4969953;28;922;-71
2023/01/10 06:55:25;;;;;;;;;;;18.50;65.10;;;;;;4970205;28;1288;-71
2023/01/10 06:58:00;;;;;;;;;;;18.50;65.10;;;;;;4967931;28;1047;-71
2023/01/10 07:00:26;;;;;;;;;;;18.40;65.00;;;;;;4967578;28;1045;-71
2023/01/10 07:02:53;;;;;;;;;;;18.50;65.10;;;;;;4987035;28;1194;-71
2023/01/10 07:05:19;;;;;;;;;;;18.50;65.10;;;;;;4970207;28;1390;-71
2023/01/10 07:07:44;;;;;;;;;;;18.50;65.10;;;;;;4964995;28;1563;-71
2023/01/10 07:10:10;;;;;;;;;;;18.50;65.10;;;;;;4966200;28;1954;-71
2023/01/10 07:12:35;;;;;;;;;;;18.50;65.80;;;;;;4967656;28;963;-70
2023/01/10 07:15:01;;;;;;;;;;;18.50;65.10;;;;;;4968301;28;1485;-71
2023/01/10 07:17:26;;;;;;;;;;;18.50;65.10;;;;;;4967812;28;1050;-71
2023/01/10 07:19:52;;;;;;;;;;;18.50;65.10;;;;;;4970156;28;889;-71
2023/01/10 07:22:17;;;;;;;;;;;18.50;65.10;;;;;;4949334;28;814;-71
2023/01/10 07:24:42;;;;;;;;;;;18.50;65.10;;;;;;4968010;28;1240;-71
2023/01/10 07:27:08;;;;;;;;;;;18.50;65.10;;;;;;4969856;28;1249;-71
2023/01/10 07:29:33;;;;;;;;;;;18.50;65.10;;;;;;4971244;28;1565;-71
2023/01/10 07:31:59;;;;;;;;;;;18.50;65.10;;;;;;4969217;28;1982;-71
2023/01/10 07:34:24;;;;;;;;;;;18.50;65.10;;;;;;4967180;28;1309;-71
2023/01/10 07:36:50;;;;;;;;;;;18.50;65.10;;;;;;4967493;28;1253;-71
2023/01/10 07:39:15;;;;;;;;;;;18.50;65.10;;;;;;4968750;28;876;-71
2023/01/10 07:41:41;;;;;;;;;;;18.50;65.10;;;;;;4966614;28;935;-71
2023/01/10 07:44:06;;;;;;;;;;;18.50;65.10;;;;;;4969661;28;797;-71
2023/01/10 07:46:32;;;;;;;;;;;18.50;65.00;;;;;;4966382;28;1273;-71
2023/01/10 07:48:57;;;;;;;;;;;18.50;65.10;;;;;;4968367;28;962;-71
2023/01/10 07:51:22;;;;;;;;;;;18.50;65.10;;;;;;4965367;28;1902;-72
2023/01/10 07:53:48;;;;;;;;;;;18.50;65.00;;;;;;4972053;28;947;-71
2023/01/10 07:56:13;;;;;;;;;;;18.50;65.10;;;;;;4967151;28;1222;-71
2023/01/10 07:58:39;;;;;;;;;;;18.50;65.10;;;;;;4966180;28;888;-71
2023/01/10 08:01:05;;;;;;;;;;;18.50;65.10;;;;;;4966247;28;1369;-71
2023/01/10 08:03:31;;;;;;;;;;;18.50;65.10;;;;;;4969015;28;1348;-71
2023/01/10 08:06:04;;;;;;;;;;;18.50;65.10;;;;;;4967519;28;1280;-71
2023/01/10 08:08:29;;;;;;;;;;;18.50;65.10;;;;;;4966848;28;809;-70
2023/01/10 08:10:55;;;;;;;;;;;18.40;65.00;;;;;;4966606;28;1907;-71
2023/01/10 08:13:21;;;;;;;;;;;18.50;65.10;;;;;;4962285;28;850;-71
2023/01/10 08:15:49;;;;;;;;;;;18.50;65.10;;;;;;4980689;28;1280;-71
2023/01/10 08:18:14;;;;;;;;;;;18.50;65.80;;;;;;4967218;28;911;-71
2023/01/10 08:20:40;;;;;;;;;;;18.50;65.10;;;;;;4962421;28;1058;-71
2023/01/10 08:23:05;;;;;;;;;;;18.50;65.10;;;;;;4968088;28;841;-72
2023/01/10 08:25:31;;;;;;;;;;;18.50;65.10;;;;;;4974044;28;1287;-71
2023/01/10 08:27:56;;;;;;;;;;;18.50;65.10;;;;;;4966419;28;931;-71
2023/01/10 08:30:22;;;;;;;;;;;18.50;65.10;;;;;;4966031;28;1946;-71
2023/01/10 08:32:47;;;;;;;;;;;18.50;65.80;;;;;;4968792;28;830;-71
2023/01/10 08:35:13;;;;;;;;;;;18.50;65.10;;;;;;4968038;28;1413;-71
2023/01/10 08:37:38;;;;;;;;;;;18.50;65.00;;;;;;4965618;28;873;-71
2023/01/10 08:40:04;;;;;;;;;;;18.50;65.00;;;;;;4966538;28;868;-71
2023/01/10 08:42:30;;;;;;;;;;;18.50;65.10;;;;;;4968219;28;910;-71
2023/01/10 08:44:55;;;;;;;;;;;18.50;65.00;;;;;;4963512;28;1340;-71
2023/01/10 08:47:20;;;;;;;;;;;18.50;65.00;;;;;;4969765;28;897;-71
2023/01/10 08:49:48;;;;;;;;;;;18.50;65.00;;;;;;4965594;28;828;-71
2023/01/10 08:52:14;;;;;;;;;;;18.50;65.00;;;;;;4963244;28;1903;-71
2023/01/10 08:54:39;;;;;;;;;;;18.50;65.00;;;;;;4964802;28;858;-71
2023/01/10 08:57:05;;;;;;;;;;;18.50;65.00;;;;;;4966103;28;2156;-71
2023/01/10 08:59:30;;;;;;;;;;;18.50;65.00;;;;;;4963432;28;1123;-71
2023/01/10 09:01:58;;;;;;;;;;;18.50;65.00;;;;;;4968177;28;1076;-71
2023/01/10 09:04:25;;;;;;;;;;;18.50;65.00;;;;;;4966014;28;1256;-71
2023/01/10 09:06:50;;;;;;;;;;;18.50;65.00;;;;;;4967183;28;1277;-71
2023/01/10 09:09:16;;;;;;;;;;;18.50;65.00;;;;;;4966793;28;841;-71
2023/01/10 09:11:41;;;;;;;;;;;18.50;64.90;;;;;;4967251;28;1968;-71
2023/01/10 09:14:06;;;;;;;;;;;18.50;64.90;;;;;;4966805;28;814;-71
2023/01/10 09:16:32;;;;;;;;;;;18.50;65.00;;;;;;4967191;28;1276;-71
2023/01/10 09:18:58;;;;;;;;;;;18.50;65.00;;;;;;4966760;28;961;-70
2023/01/10 09:21:23;;;;;;;;;;;18.50;64.90;;;;;;4966914;28;880;-71
2023/01/10 09:23:48;;;;;;;;;;;18.50;64.90;;;;;;4968796;28;1937;-69
2023/01/10 09:26:14;;;;;;;;;;;18.50;65.00;;;;;;4963606;28;1363;-69
2023/01/10 09:28:39;;;;;;;;;;;18.50;65.00;;;;;;4964168;28;928;-70
2023/01/10 09:31:07;;;;;;;;;;;18.50;64.90;;;;;;4959503;28;1910;-70
2023/01/10 09:33:33;;;;;;;;;;;18.50;65.00;;;;;;4967190;28;820;-71
2023/01/10 09:36:01;;;;;;;;;;;18.50;65.00;;;;;;4963231;28;1414;-71
2023/01/10 09:38:27;;;;;;;;;;;18.50;65.00;;;;;;4966020;28;1494;-71
2023/01/10 09:41:01;;;;;;;;;;;18.50;65.00;;;;;;4964744;28;952;-71
2023/01/10 09:43:39;;;;;;;;;;;18.50;65.10;;;;;;4966117;28;841;-72
2023/01/10 09:46:04;;;;;;;;;;;18.50;65.10;;;;;;4965550;28;1651;-72
2023/01/10 09:48:36;;;;;;;;;;;18.40;65.00;;;;;;4965829;28;817;-72
2023/01/10 09:51:31;;;;;;;;;;;18.50;65.10;;;;;;4963569;28;1902;-72
2023/01/10 09:53:58;;;;;;;;;;;18.50;65.10;;;;;;4969751;28;1344;-72
2023/01/10 09:56:24;;;;;;;;;;;18.50;65.10;;;;;;4963296;28;1304;-71
2023/01/10 09:58:50;;;;;;;;;;;18.50;65.10;;;;;;4964889;28;843;-71
2023/01/10 10:01:16;;;;;;;;;;;18.50;65.10;;;;;;4965701;28;1403;-71
2023/01/10 10:03:47;;;;;;;;;;;18.50;65.00;;;;;;4964935;28;1347;-73
2023/01/10 10:06:13;;;;;;;;;;;18.50;65.00;;;;;;4964692;28;1280;-72
2023/01/10 10:08:39;;;;;;;;;;;18.50;64.90;;;;;;4964683;28;927;-71
2023/01/10 10:11:04;;;;;;;;;;;18.50;64.90;;;;;;4967589;28;1964;-71
2023/01/10 10:13:33;;;;;;;;;;;18.50;64.80;;;;;;4966044;28;1293;-71
2023/01/10 10:16:04;;;;;;;;;;;18.50;64.80;;;;;;4967277;28;1266;-70
2023/01/10 10:18:50;;;;;;;;;;;18.50;64.80;;;;;;4966241;28;868;-71
2023/01/10 10:21:22;;;;;;;;;;;18.50;64.80;;;;;;4966960;28;1300;-70
2023/01/10 10:23:57;;;;;;;;;;;18.50;64.70;;;;;;4966922;28;922;-72
2023/01/10 10:26:29;;;;;;;;;;;18.60;64.70;;;;;;4982093;28;1660;-71
2023/01/10 10:28:57;;;;;;;;;;;18.50;64.70;;;;;;4967198;28;863;-71
2023/01/10 10:31:22;;;;;;;;;;;18.60;64.70;;;;;;4970400;28;1903;-70
2023/01/10 10:34:07;;;;;;;;;;;18.60;64.70;;;;;;4970743;28;829;-71
2023/01/10 10:36:52;;;;;;;;;;;18.60;64.70;;;;;;4976849;28;1583;-71
2023/01/10 10:39:18;;;;;;;;;;;18.60;64.60;;;;;;4955872;28;1196;-71
2023/01/10 10:41:44;;;;;;;;;;;18.60;64.60;;;;;;4968467;28;905;-71
2023/01/10 10:44:28;;;;;;;;;;;18.60;64.60;;;;;;4968281;28;885;-70
2023/01/10 10:46:55;;;;;;;;;;;18.60;64.60;;;;;;4969202;28;1319;-70
2023/01/10 10:49:26;;;;;;;;;;;18.60;64.50;;;;;;4967101;28;903;-70
2023/01/10 10:51:52;;;;;;;;;;;18.60;64.40;;;;;;4973786;28;1967;-71
2023/01/10 10:54:17;;;;;;;;;;;18.60;64.40;;;;;;4970458;28;903;-71
2023/01/10 10:56:43;;;;;;;;;;;18.60;64.40;;;;;;4969266;28;1625;-71
2023/01/10 10:59:09;;;;;;;;;;;18.60;64.40;;;;;;4968967;28;785;-71
2023/01/10 11:01:35;;;;;;;;;;;18.60;64.40;;;;;;4964726;28;1355;-72
2023/01/10 11:04:01;;;;;;;;;;;18.60;64.30;;;;;;4968070;28;1264;-72
2023/01/10 11:06:27;;;;;;;;;;;18.60;64.30;;;;;;4965922;28;1244;-71
2023/01/10 11:08:54;;;;;;;;;;;18.60;64.30;;;;;;4969714;28;831;-71
2023/01/10 11:11:26;;;;;;;;;;;18.60;64.30;;;;;;4963742;28;2338;-72
2023/01/10 11:13:53;;;;;;;;;;;18.60;64.20;;;;;;4974009;28;805;-71
2023/01/10 11:16:29;;;;;;;;;;;18.60;64.30;;;;;;4972447;28;1240;-71
2023/01/10 11:19:13;;;;;;;;;;;18.60;64.30;;;;;;4970698;28;844;-72
2023/01/10 11:21:39;;;;;;;;;;;18.70;64.30;;;;;;4971837;28;1026;-71
2023/01/10 11:24:07;;;;;;;;;;;18.60;64.30;;;;;;4970774;28;828;-72
2023/01/10 11:26:36;;;;;;;;;;;18.60;64.20;;;;;;4966976;28;1246;-71
2023/01/10 11:29:17;;;;;;;;;;;18.60;64.20;;;;;;4952816;28;1329;-72
2023/01/10 11:31:44;;;;;;;;;;;18.60;64.30;;;;;;4969821;28;1902;-71
2023/01/10 11:34:36;;;;;;;;;;;18.60;64.20;;;;;;4965850;28;1348;-72
2023/01/10 11:37:01;;;;;;;;;;;18.60;64.20;;;;;;4965502;28;1198;-72
2023/01/10 11:39:27;;;;;;;;;;;18.60;64.30;;;;;;4969925;28;943;-73
2023/01/10 11:41:54;;;;;;;;;;;18.70;64.30;;;;;;4968702;28;914;-71
2023/01/10 11:44:20;;;;;;;;;;;18.60;64.20;;;;;;4966185;28;824;-73
2023/01/10 11:46:45;;;;;;;;;;;18.60;64.30;;;;;;4967073;28;1328;-71
2023/01/10 11:49:18;;;;;;;;;;;18.60;64.30;;;;;;4967813;28;907;-74
2023/01/10 11:51:51;;;;;;;;;;;18.60;64.30;;;;;;4969860;28;1957;-71
2023/01/10 11:54:18;;;;;;;;;;;18.60;64.30;;;;;;4969298;28;1022;-72
2023/01/10 11:56:46;;;;;;;;;;;18.60;64.30;;;;;;4968408;28;1275;-72
2023/01/10 11:59:13;;;;;;;;;;;18.60;64.30;;;;;;4967460;28;892;-71
2023/01/10 12:01:41;;;;;;;;;;;18.60;64.30;;;;;;4965580;28;1351;-72
2023/01/10 12:04:07;;;;;;;;;;;18.60;64.40;;;;;;4968343;28;1295;-71
2023/01/10 12:06:32;;;;;;;;;;;18.60;64.40;;;;;;4967331;28;1234;-71
2023/01/10 12:08:58;;;;;;;;;;;18.60;64.30;;;;;;4966416;28;884;-69
2023/01/10 12:11:28;;;;;;;;;;;18.60;64.30;;;;;;4973113;28;1960;-70
2023/01/10 12:13:57;;;;;;;;;;;18.60;64.40;;;;;;4966560;28;1321;-70
2023/01/10 12:16:23;;;;;;;;;;;18.60;64.40;;;;;;4968341;28;1257;-71
2023/01/10 12:18:49;;;;;;;;;;;18.60;65.10;;;;;;4968469;28;809;-72
2023/01/10 12:21:16;;;;;;;;;;;18.60;64.40;;;;;;4966170;28;924;-71
2023/01/10 12:23:43;;;;;;;;;;;18.60;64.40;;;;;;4964457;28;2132;-71
2023/01/10 12:26:12;;;;;;;;;;;18.60;64.40;;;;;;4966748;28;1882;-70
2023/01/10 12:28:38;;;;;;;;;;;18.60;64.40;;;;;;4953970;28;2233;-70
2023/01/10 12:31:04;;;;;;;;;;;18.60;64.40;;;;;;4982776;28;1902;-71
2023/01/10 12:33:33;;;;;;;;;;;18.60;64.40;;;;;;4967143;28;869;-71
2023/01/10 12:36:17;;;;;;;;;;;18.60;64.50;;;;;;4969043;28;1346;-71
2023/01/10 12:39:02;;;;;;;;;;;18.60;64.50;;;;;;4970970;28;975;-70
2023/01/10 12:44:26;;;;;;;;;;;18.60;64.50;;;;;;4969185;28;759;-72
2023/01/10 12:46:54;;;;;;;;;;;18.60;64.50;;;;;;4984429;28;1342;-72
2023/01/10 12:49:28;;;;;;;;;;;18.60;64.60;;;;;;4970146;28;912;-73
2023/01/10 12:51:54;;;;;;;;;;;18.60;64.60;;;;;;4952218;28;1911;-70
2023/01/10 12:54:23;;;;;;;;;;;18.60;64.60;;;;;;4966606;28;884;-70
2023/01/10 12:56:48;;;;;;;;;;;18.60;64.60;;;;;;4968893;28;1280;-71
2023/01/10 12:59:23;;;;;;;;;;;18.60;64.70;;;;;;4966557;28;919;-71
2023/01/10 13:01:51;;;;;;;;;;;18.50;64.70;;;;;;4968764;28;1035;-71
2023/01/10 13:04:18;;;;;;;;;;;18.60;64.70;;;;;;4969862;28;801;-71
2023/01/10 13:06:50;;;;;;;;;;;18.60;64.70;;;;;;5076264;27;1787;-70
2023/01/10 13:09:19;;;;;;;;;;;18.50;64.80;;;;;;5054376;28;1320;-70
2023/01/10 13:12:06;;;;;;;;;;;18.50;64.70;;;;;;5063833;28;1905;-69
2023/01/10 13:14:55;;;;;;;;;;;18.50;64.80;;;;;;5065543;28;1179;-70
2023/01/10 13:17:41;;;;;;;;;;;18.50;64.80;;;;;;5066226;28;1370;-69
2023/01/10 13:20:16;;;;;;;;;;;18.50;64.90;;;;;;5060747;28;1575;-69
2023/01/10 13:22:46;;;;;;;;;;;18.50;64.90;;;;;;5066776;28;1236;-70
2023/01/10 13:25:38;;;;;;;;;;;18.50;65.00;;;;;;5053680;28;1973;-70
2023/01/10 13:28:04;;;;;;;;;;;18.50;65.00;;;;;;5070031;28;1095;-69
2023/01/10 13:30:31;;;;;;;;;;;18.50;65.00;;;;;;5066875;28;922;-70
2023/01/10 13:33:07;;;;;;;;;;;18.40;65.00;;;;;;5060531;28;862;-69
2023/01/10 13:35:39;;;;;;;;;;;18.50;65.10;;;;;;5048720;28;1303;-71
2023/01/10 13:38:04;;;;;;;;;;;18.50;65.10;;;;;;5069966;28;816;-69
2023/01/10 13:40:30;;;;;;;;;;;18.40;65.10;;;;;;5068562;28;819;-70
2023/01/10 13:43:18;;;;;;;;;;;18.40;65.20;;;;;;5069029;28;839;-73
2023/01/10 13:45:43;;;;;;;;;;;18.50;65.20;;;;;;5068434;28;1906;-72
2023/01/10 13:48:25;;;;;;;;;;;18.40;65.20;;;;;;5069755;28;764;-72
2023/01/10 13:50:51;;;;;;;;;;;18.40;65.20;;;;;;5068434;28;871;-69
2023/01/10 13:53:17;;;;;;;;;;;18.40;65.20;;;;;;5069630;28;854;-69
2023/01/10 13:55:45;;;;;;;;;;;18.50;65.20;;;;;;5065439;28;1359;-68
2023/01/10 13:58:13;;;;;;;;;;;18.40;65.10;;;;;;5068882;28;897;-70
2023/01/10 14:03:36;;;;;;;;;;;18.50;65.20;;;;;;5067518;28;1296;-70
2023/01/10 14:06:02;;;;;;;;;;;18.50;65.10;;;;;;5066515;28;1894;-70
2023/01/10 14:08:31;;;;;;;;;;;18.50;65.10;;;;;;5055685;28;1062;-70
2023/01/10 14:11:06;;;;;;;;;;;18.50;65.10;;;;;;5068023;28;1006;-69
2023/01/10 14:13:31;;;;;;;;;;;18.50;65.00;;;;;;5067618;28;987;-69
2023/01/10 14:15:57;;;;;;;;;;;18.50;65.00;;;;;;5070051;28;1331;-70
2023/01/10 14:18:23;;;;;;;;;;;18.50;65.00;;;;;;5054492;28;955;-69
2023/01/10 14:20:59;;;;;;;;;;;18.50;65.00;;;;;;5054718;28;788;-70
2023/01/10 14:23:27;;;;;;;;;;;18.50;65.00;;;;;;5054830;28;991;-70
2023/01/10 14:25:53;;;;;;;;;;;18.50;64.90;;;;;;5045687;28;1898;-70
2023/01/10 14:28:28;;;;;;;;;;;18.50;64.90;;;;;;5047544;28;871;-70
2023/01/10 14:31:00;;;;;;;;;;;18.50;64.90;;;;;;5052273;28;896;-70
2023/01/10 14:33:25;;;;;;;;;;;18.50;64.90;;;;;;5052218;28;1839;-69
2023/01/10 14:35:55;;;;;;;;;;;18.50;64.90;;;;;;5053862;28;1385;-70
2023/01/10 14:38:24;;;;;;;;;;;18.50;64.90;;;;;;5052579;28;1061;-70
2023/01/10 14:40:50;;;;;;;;;;;18.50;64.80;;;;;;5054092;28;975;-70
2023/01/10 14:43:16;;;;;;;;;;;18.50;64.90;;;;;;5044842;28;855;-69
2023/01/10 14:45:43;;;;;;;;;;;18.50;64.80;;;;;;5053429;28;1929;-70
2023/01/10 14:48:23;;;;;;;;;;;18.50;64.80;;;;;;5034965;28;1211;-70
2023/01/10 14:50:49;;;;;;;;;;;18.50;64.80;;;;;;5052482;28;871;-70
2023/01/10 14:53:24;;;;;;;;;;;18.60;64.80;;;;;;5058478;28;820;-70
2023/01/10 14:55:49;;;;;;;;;;;18.50;64.80;;;;;;5054571;28;1249;-70